Terminal Aerodrome Forecast
Issued by NWS

Home | Current Version | Previous Version | Text Only | Print | Product List | Glossary On
Versions: 1 2 3 4 5 6 7 8 9 10 11 12
653
FTUS45 KTFX 262320
TAFHVR
TAF
KHVR 262320Z 2700/2724 07010KT P6SM VCTS SCT060CB BKN130
      TEMPO 2700/2703 VRB25G45KT 5SM TSRAGS BKN040CB
     FM270500 VRB05KT P6SM SCT070 BKN150
     FM271000 VRB05KT P6SM VCSH SCT050 BKN070
     FM271500 VRB06KT P6SM SCT070 BKN130
     FM272100 04008KT P6SM VCTS SCT060CB BKN090=

USA.gov is the U.S. government's official web portal to all federal, state and local government web resources and services.